createdAt,value
2024-01-14T00:00:08.867Z,0.00
2024-01-14T00:01:08.924Z,0.00
2024-01-14T00:02:08.973Z,0.00
2024-01-14T00:03:09.158Z,0.00
2024-01-14T00:04:09.216Z,0.00
2024-01-14T00:05:09.310Z,0.00
2024-01-14T00:06:09.457Z,0.00
2024-01-14T00:07:09.458Z,0.00
2024-01-14T00:08:09.508Z,0.00
2024-01-14T00:09:09.592Z,0.00
2024-01-14T00:10:09.640Z,0.00
2024-01-14T00:11:09.722Z,0.00
2024-01-14T00:12:09.812Z,0.00
2024-01-14T00:13:09.840Z,0.00
2024-01-14T00:14:09.901Z,0.00
2024-01-14T00:15:10.031Z,0.00
2024-01-14T00:16:10.126Z,0.00
2024-01-14T00:17:10.161Z,0.00
2024-01-14T00:18:10.328Z,0.00
2024-01-14T00:19:10.416Z,0.00
2024-01-14T00:20:10.436Z,0.00
2024-01-14T00:21:10.518Z,0.00
2024-01-14T00:22:10.562Z,0.00
2024-01-14T00:23:10.626Z,0.00
2024-01-14T00:24:10.762Z,0.00
2024-01-14T00:25:10.793Z,0.00
2024-01-14T00:26:10.898Z,0.00
2024-01-14T00:27:11.030Z,0.00
2024-01-14T00:28:11.023Z,0.00
2024-01-14T00:29:11.183Z,0.00
2024-01-14T00:30:11.561Z,0.00
2024-01-14T00:31:11.442Z,0.00
2024-01-14T00:32:11.369Z,0.00
2024-01-14T00:33:11.554Z,0.00
2024-01-14T00:34:11.721Z,0.00
2024-01-14T00:35:11.706Z,0.00
2024-01-14T00:36:11.790Z,0.00
2024-01-14T00:37:11.896Z,0.00
2024-01-14T00:38:11.868Z,0.00
2024-01-14T00:39:11.981Z,0.00
2024-01-14T00:40:12.010Z,0.00
2024-01-14T00:41:12.108Z,0.00
2024-01-14T00:42:12.222Z,0.00
2024-01-14T00:43:12.296Z,0.00
2024-01-14T00:44:12.384Z,0.00
2024-01-14T00:45:12.490Z,0.00
2024-01-14T00:46:12.540Z,0.00
2024-01-14T00:47:12.592Z,0.00
2024-01-14T00:48:12.861Z,0.00
2024-01-14T00:49:12.875Z,0.00
2024-01-14T00:50:12.868Z,0.00
2024-01-14T00:51:12.993Z,0.00
2024-01-14T00:52:13.073Z,0.00
2024-01-14T00:53:13.111Z,0.00
2024-01-14T00:54:13.264Z,0.00
2024-01-14T00:55:13.300Z,0.00
2024-01-14T00:56:13.391Z,0.00
2024-01-14T00:57:13.627Z,0.00
2024-01-14T00:58:13.545Z,0.00
2024-01-14T00:59:13.665Z,0.00
2024-01-14T01:00:13.764Z,0.00
2024-01-14T01:01:13.837Z,0.00
2024-01-14T01:02:13.854Z,0.00
2024-01-14T01:03:14.073Z,0.00
2024-01-14T01:04:14.254Z,0.00
2024-01-14T01:05:14.183Z,0.00
2024-01-14T01:06:14.193Z,0.00
2024-01-14T01:07:14.271Z,0.00
2024-01-14T01:08:14.334Z,0.00
2024-01-14T01:09:14.458Z,0.00
2024-01-14T01:10:14.524Z,0.00
2024-01-14T01:11:14.635Z,0.00
2024-01-14T01:12:14.782Z,0.00
2024-01-14T01:13:14.827Z,0.00
2024-01-14T01:14:14.881Z,0.00
2024-01-14T01:15:15.069Z,0.00
2024-01-14T01:16:15.064Z,0.00
2024-01-14T01:17:15.166Z,0.00
2024-01-14T01:18:15.404Z,0.00
2024-01-14T01:19:15.356Z,0.00
2024-01-14T01:20:15.423Z,0.00
2024-01-14T01:21:15.491Z,0.00
2024-01-14T01:22:15.584Z,0.00
2024-01-14T01:23:15.677Z,0.00
2024-01-14T01:24:15.802Z,0.00
2024-01-14T01:25:15.848Z,0.00
2024-01-14T01:26:15.926Z,0.00
2024-01-14T01:27:16.051Z,0.00
2024-01-14T01:28:16.044Z,0.00
2024-01-14T01:29:16.144Z,0.00
2024-01-14T01:30:16.370Z,0.00
2024-01-14T01:31:25.024Z,0.00
2024-01-14T01:32:16.517Z,0.00
2024-01-14T01:33:16.753Z,0.00
2024-01-14T01:34:16.751Z,0.00
2024-01-14T01:35:16.763Z,0.00
2024-01-14T01:36:16.813Z,0.00
2024-01-14T01:37:16.816Z,0.00
2024-01-14T01:38:16.903Z,0.00
2024-01-14T01:39:16.993Z,0.00
2024-01-14T01:40:17.070Z,0.00
2024-01-14T01:41:17.176Z,0.00
2024-01-14T01:42:17.289Z,0.00
2024-01-14T01:43:17.399Z,0.00
2024-01-14T01:44:17.406Z,0.00
2024-01-14T01:45:17.540Z,0.00
2024-01-14T01:46:17.586Z,0.00
2024-01-14T01:47:17.657Z,0.00
2024-01-14T01:48:20.312Z,0.00
2024-01-14T01:49:17.903Z,0.00
2024-01-14T01:50:18.045Z,0.00
2024-01-14T01:51:18.010Z,0.00
2024-01-14T01:52:18.090Z,0.00
2024-01-14T01:53:18.182Z,0.00
2024-01-14T01:54:18.319Z,0.00
2024-01-14T01:55:18.359Z,0.00
2024-01-14T01:56:18.419Z,0.00
2024-01-14T01:57:18.608Z,0.00
2024-01-14T01:59:33.146Z,0.00
2024-01-14T02:00:34.386Z,0.00
2024-01-14T02:01:34.268Z,0.00
2024-01-14T02:02:34.442Z,0.00
2024-01-14T02:03:34.630Z,0.00
2024-01-14T02:04:34.532Z,0.00
2024-01-14T02:05:34.594Z,0.00
2024-01-14T02:06:34.669Z,0.00
2024-01-14T02:07:34.738Z,0.00
2024-01-14T02:08:34.859Z,0.00
2024-01-14T02:09:34.957Z,0.00
2024-01-14T02:10:35.012Z,0.00
2024-01-14T02:11:35.071Z,0.00
2024-01-14T02:12:35.218Z,0.00
2024-01-14T02:13:35.226Z,0.00
2024-01-14T02:14:35.306Z,0.00
2024-01-14T02:15:35.549Z,0.00
2024-01-14T02:16:35.489Z,0.00
2024-01-14T02:17:35.602Z,0.00
2024-01-14T02:18:35.792Z,0.00
2024-01-14T02:19:35.791Z,0.00
2024-01-14T02:20:35.772Z,0.00
2024-01-14T02:21:35.862Z,0.00
2024-01-14T02:22:35.967Z,0.00
2024-01-14T02:23:36.011Z,0.00
2024-01-14T02:24:36.150Z,0.00
2024-01-14T02:25:36.210Z,0.00
2024-01-14T02:26:36.276Z,0.00
2024-01-14T02:27:36.825Z,0.00
2024-01-14T02:28:36.425Z,0.00
2024-01-14T02:29:36.474Z,0.00
2024-01-14T02:30:36.746Z,0.00
2024-01-14T02:31:36.669Z,0.00
2024-01-14T02:32:36.826Z,0.00
2024-01-14T02:33:36.943Z,0.00
2024-01-14T02:34:37.417Z,0.00
2024-01-14T02:35:36.981Z,0.00
2024-01-14T02:36:37.114Z,0.00
2024-01-14T02:37:37.151Z,0.00
2024-01-14T02:38:37.256Z,0.00
2024-01-14T02:39:37.323Z,0.00
2024-01-14T02:40:37.429Z,0.00
2024-01-14T02:41:37.503Z,0.00
2024-01-14T02:42:37.667Z,0.00
2024-01-14T02:43:37.667Z,0.00
2024-01-14T02:44:37.756Z,0.00
2024-01-14T02:45:37.812Z,0.00
2024-01-14T02:46:37.934Z,0.00
2024-01-14T02:47:38.010Z,0.00
2024-01-14T02:48:38.174Z,0.00
2024-01-14T02:49:38.203Z,0.00
2024-01-14T02:50:38.296Z,0.00
2024-01-14T02:51:38.451Z,0.00
2024-01-14T02:52:38.475Z,0.00
2024-01-14T02:53:38.537Z,0.00
2024-01-14T02:54:38.685Z,0.00
2024-01-14T02:55:38.729Z,0.00
2024-01-14T02:56:38.803Z,0.00
2024-01-14T02:57:38.902Z,0.00
2024-01-14T02:58:38.943Z,0.00
2024-01-14T02:59:39.054Z,0.00
2024-01-14T03:00:39.280Z,0.00
2024-01-14T03:01:39.226Z,0.00
2024-01-14T03:02:39.308Z,0.00
2024-01-14T03:03:39.483Z,0.00
2024-01-14T03:04:39.494Z,0.00
2024-01-14T03:05:39.628Z,0.00
2024-01-14T03:06:39.676Z,0.00
2024-01-14T03:07:39.751Z,0.00
2024-01-14T03:08:39.789Z,0.00
2024-01-14T03:09:39.944Z,0.00
2024-01-14T03:10:39.949Z,0.00
2024-01-14T03:11:40.023Z,0.00
2024-01-14T03:12:40.215Z,0.00
2024-01-14T03:13:40.201Z,0.00
2024-01-14T03:14:40.263Z,0.00
2024-01-14T03:15:40.359Z,0.00
2024-01-14T03:16:40.514Z,0.00
2024-01-14T03:17:40.677Z,0.00
2024-01-14T03:18:40.823Z,0.00
2024-01-14T03:19:40.948Z,0.00
2024-01-14T03:20:40.737Z,0.00
2024-01-14T03:21:40.868Z,0.00
2024-01-14T03:22:40.965Z,0.00
2024-01-14T03:23:41.028Z,0.00
2024-01-14T03:24:41.059Z,0.00
2024-01-14T03:25:41.163Z,0.00
2024-01-14T03:26:41.213Z,0.00
2024-01-14T03:27:41.344Z,0.00
2024-01-14T03:28:41.403Z,0.00
2024-01-14T03:29:41.518Z,0.00
2024-01-14T03:30:41.680Z,0.00
2024-01-14T03:31:41.623Z,0.00
2024-01-14T03:32:41.722Z,0.00
2024-01-14T03:33:41.805Z,0.00
2024-01-14T03:34:41.976Z,0.00
2024-01-14T03:35:41.938Z,0.00
2024-01-14T03:36:41.990Z,0.00
2024-01-14T03:37:42.093Z,0.00
2024-01-14T03:38:42.214Z,0.00
2024-01-14T03:39:42.399Z,0.00
2024-01-14T03:40:42.392Z,0.00
2024-01-14T03:41:42.416Z,0.00
2024-01-14T03:42:42.495Z,0.00
2024-01-14T03:43:42.657Z,0.00
2024-01-14T03:44:42.694Z,0.00
2024-01-14T03:45:42.792Z,0.00
2024-01-14T03:46:42.834Z,0.00
2024-01-14T03:47:43.061Z,0.00
2024-01-14T03:48:43.166Z,0.00
2024-01-14T03:49:43.147Z,0.00
2024-01-14T03:50:43.126Z,0.00
2024-01-14T03:51:43.296Z,0.00
2024-01-14T03:52:43.304Z,0.00
2024-01-14T03:53:43.424Z,0.00
2024-01-14T03:54:43.474Z,0.00
2024-01-14T03:55:43.564Z,0.00
2024-01-14T03:56:43.668Z,0.00
2024-01-14T03:57:43.748Z,0.00
2024-01-14T03:58:43.789Z,0.00
2024-01-14T03:59:43.840Z,0.00
2024-01-14T04:00:44.037Z,0.00
2024-01-14T04:01:44.051Z,0.00
2024-01-14T04:02:44.112Z,0.00
2024-01-14T04:03:44.274Z,0.00
2024-01-14T04:04:44.318Z,0.00
2024-01-14T04:05:44.397Z,0.00
2024-01-14T04:06:44.526Z,0.00
2024-01-14T04:07:44.519Z,0.00
2024-01-14T04:08:44.610Z,0.00
2024-01-14T04:09:44.677Z,0.00
2024-01-14T04:10:44.762Z,0.00
2024-01-14T04:11:44.846Z,0.00
2024-01-14T04:12:44.904Z,0.00
2024-01-14T04:13:44.991Z,0.00
2024-01-14T04:14:45.089Z,0.00
2024-01-14T04:15:45.212Z,0.00
2024-01-14T04:16:45.239Z,0.00
2024-01-14T04:17:45.362Z,0.00
2024-01-14T04:18:45.528Z,0.00
2024-01-14T04:19:45.619Z,0.00
2024-01-14T04:20:45.582Z,0.00
2024-01-14T04:21:45.696Z,0.00
2024-01-14T04:22:45.774Z,0.00
2024-01-14T04:23:45.829Z,0.00
2024-01-14T04:24:45.927Z,0.00
2024-01-14T04:25:46.064Z,0.00
2024-01-14T04:26:46.141Z,0.00
2024-01-14T04:27:46.229Z,0.00
2024-01-14T04:28:46.284Z,0.00
2024-01-14T04:29:46.361Z,0.00
2024-01-14T04:30:46.551Z,0.00
2024-01-14T04:31:46.521Z,0.00
2024-01-14T04:32:48.772Z,0.00
2024-01-14T04:33:46.729Z,0.00
2024-01-14T04:34:46.870Z,0.00
2024-01-14T04:35:46.868Z,0.00
2024-01-14T04:36:46.904Z,0.00
2024-01-14T04:37:46.962Z,0.00
2024-01-14T04:38:47.051Z,0.00
2024-01-14T04:39:47.161Z,0.00
2024-01-14T04:40:47.260Z,0.00
2024-01-14T04:41:47.325Z,0.00
2024-01-14T04:42:47.381Z,0.00
2024-01-14T04:43:47.475Z,0.00
2024-01-14T04:44:47.562Z,0.00
2024-01-14T04:45:47.651Z,0.00
2024-01-14T04:46:47.735Z,0.00
2024-01-14T04:47:47.975Z,0.00
2024-01-14T04:48:48.070Z,0.00
2024-01-14T04:49:48.053Z,0.00
2024-01-14T04:50:48.048Z,0.00
2024-01-14T04:51:48.124Z,0.00
2024-01-14T04:52:48.172Z,0.00
2024-01-14T04:53:48.290Z,0.00
2024-01-14T04:54:48.351Z,0.00
2024-01-14T04:55:48.488Z,0.00
2024-01-14T04:56:48.627Z,0.00
2024-01-14T04:57:48.650Z,0.00
2024-01-14T04:58:48.710Z,0.00
2024-01-14T04:59:48.801Z,0.00
2024-01-14T05:00:48.960Z,0.00
2024-01-14T05:01:49.002Z,0.00
2024-01-14T05:02:49.128Z,0.00
2024-01-14T05:03:49.536Z,0.00
2024-01-14T05:04:49.266Z,0.00
2024-01-14T05:05:49.375Z,0.00
2024-01-14T05:06:49.464Z,0.00
2024-01-14T05:07:49.555Z,0.00
2024-01-14T05:08:49.688Z,0.00
2024-01-14T05:09:49.699Z,0.00
2024-01-14T05:10:49.741Z,0.00
2024-01-14T05:11:49.868Z,0.00
2024-01-14T05:12:49.900Z,0.00
2024-01-14T05:13:50.032Z,0.00
2024-01-14T05:14:50.189Z,0.00
2024-01-14T05:15:50.194Z,0.00
2024-01-14T05:16:50.297Z,0.00
2024-01-14T05:17:50.832Z,0.00
2024-01-14T05:18:50.574Z,0.00
2024-01-14T05:19:50.646Z,0.00
2024-01-14T05:20:50.695Z,0.00
2024-01-14T05:21:50.713Z,0.00
2024-01-14T05:22:50.780Z,0.00
2024-01-14T05:23:50.920Z,0.00
2024-01-14T05:24:50.956Z,0.00
2024-01-14T05:25:51.058Z,0.00
2024-01-14T05:26:51.198Z,0.00
2024-01-14T05:27:51.219Z,0.00
2024-01-14T05:28:51.275Z,0.00
2024-01-14T05:29:51.451Z,0.00
2024-01-14T05:30:51.546Z,0.00
2024-01-14T05:31:51.571Z,0.00
2024-01-14T05:32:51.623Z,0.00
2024-01-14T05:33:51.753Z,0.00
2024-01-14T05:34:51.842Z,0.00
2024-01-14T05:35:51.962Z,0.00
2024-01-14T05:36:51.982Z,0.00
2024-01-14T05:37:52.069Z,0.00
2024-01-14T05:38:52.186Z,0.00
2024-01-14T05:39:52.278Z,0.00
2024-01-14T05:40:52.385Z,0.00
2024-01-14T05:41:52.480Z,0.00
2024-01-14T05:42:52.531Z,0.00
2024-01-14T05:43:52.694Z,0.00
2024-01-14T05:44:52.746Z,0.00
2024-01-14T05:45:52.862Z,0.00
2024-01-14T05:46:52.833Z,0.00
2024-01-14T05:47:52.971Z,0.00
2024-01-14T05:48:53.192Z,0.00
2024-01-14T05:49:53.143Z,0.00
2024-01-14T05:50:53.195Z,0.00
2024-01-14T05:51:53.281Z,0.00
2024-01-14T05:52:53.340Z,0.00
2024-01-14T05:53:53.515Z,0.00
2024-01-14T05:54:53.490Z,0.00
2024-01-14T05:55:53.604Z,0.00
2024-01-14T05:56:53.693Z,0.00
2024-01-14T05:57:53.748Z,0.00
2024-01-14T05:58:53.822Z,0.00
2024-01-14T05:59:53.936Z,0.00
2024-01-14T06:00:54.064Z,0.00
2024-01-14T06:01:54.075Z,0.00
2024-01-14T06:02:54.202Z,0.00
2024-01-14T06:03:54.192Z,0.00
2024-01-14T06:04:54.360Z,0.00
2024-01-14T06:05:54.542Z,0.00
2024-01-14T06:06:54.630Z,0.00
2024-01-14T06:07:54.574Z,0.00
2024-01-14T06:08:54.645Z,0.00
2024-01-14T06:09:54.848Z,0.00
2024-01-14T06:10:54.864Z,0.00
2024-01-14T06:11:55.044Z,0.00
2024-01-14T06:12:55.039Z,0.00
2024-01-14T06:13:55.121Z,0.00
2024-01-14T06:14:55.167Z,0.00
2024-01-14T06:15:55.208Z,0.00
2024-01-14T06:16:55.264Z,0.00
2024-01-14T06:17:55.479Z,0.00
2024-01-14T06:18:55.757Z,0.00
2024-01-14T06:19:55.536Z,0.00
2024-01-14T06:20:55.586Z,0.00
2024-01-14T06:21:55.691Z,0.00
2024-01-14T06:22:55.861Z,0.00
2024-01-14T06:23:55.928Z,0.00
2024-01-14T06:24:56.022Z,0.00
2024-01-14T06:25:56.020Z,0.00
2024-01-14T06:26:56.095Z,0.00
2024-01-14T06:27:56.187Z,0.00
2024-01-14T06:28:56.272Z,0.00
2024-01-14T06:29:56.403Z,0.00
2024-01-14T06:30:56.553Z,0.00
2024-01-14T06:31:56.559Z,0.00
2024-01-14T06:32:56.710Z,0.00
2024-01-14T06:33:56.753Z,0.00
2024-01-14T06:34:56.736Z,0.00
2024-01-14T06:35:56.844Z,0.00
2024-01-14T06:36:56.937Z,0.00
2024-01-14T06:37:56.993Z,0.00
2024-01-14T06:38:57.226Z,0.00
2024-01-14T06:39:57.151Z,0.00
2024-01-14T06:41:03.341Z,0.00
2024-01-14T06:41:57.309Z,0.00
2024-01-14T06:42:57.345Z,0.00
2024-01-14T06:43:57.436Z,0.00
2024-01-14T06:44:57.555Z,0.00
2024-01-14T06:45:57.590Z,0.00
2024-01-14T06:46:57.638Z,0.00
2024-01-14T06:47:57.863Z,0.00
2024-01-14T06:48:57.995Z,0.00
2024-01-14T06:50:06.743Z,0.00
2024-01-14T06:50:58.057Z,0.00
2024-01-14T06:51:58.109Z,0.00
2024-01-14T06:52:58.201Z,0.00
2024-01-14T06:53:58.315Z,0.00
2024-01-14T06:54:58.371Z,0.00
2024-01-14T06:55:58.411Z,0.00
2024-01-14T06:56:58.558Z,0.00
2024-01-14T06:57:58.553Z,0.00
2024-01-14T06:58:58.648Z,0.00
2024-01-14T06:59:58.793Z,0.00
2024-01-14T07:00:59.061Z,0.00
2024-01-14T07:01:58.934Z,0.00
2024-01-14T07:02:59.087Z,0.00
2024-01-14T07:03:59.180Z,0.00
2024-01-14T07:04:59.291Z,0.00
2024-01-14T07:05:59.411Z,0.00
2024-01-14T07:06:59.459Z,0.00
2024-01-14T07:07:59.433Z,0.00
2024-01-14T07:08:59.494Z,0.00
2024-01-14T07:09:59.671Z,4.00
2024-01-14T07:10:59.670Z,0.00
2024-01-14T07:11:59.727Z,0.00
2024-01-14T07:12:59.763Z,4.00
2024-01-14T07:13:59.876Z,4.00
2024-01-14T07:15:00.111Z,8.00
2024-01-14T07:16:00.067Z,8.00
2024-01-14T07:17:00.151Z,8.00
2024-01-14T07:18:00.981Z,8.00
2024-01-14T07:19:00.767Z,12.00
2024-01-14T07:20:00.519Z,8.00
2024-01-14T07:21:00.512Z,8.00
2024-01-14T07:22:00.524Z,12.00
2024-01-14T07:23:40.150Z,12.00
2024-01-14T07:24:00.742Z,8.00
2024-01-14T07:25:00.731Z,12.00
2024-01-14T07:26:00.901Z,12.00
2024-01-14T07:27:00.893Z,16.00
2024-01-14T07:28:00.959Z,20.00
2024-01-14T07:29:01.039Z,16.00
2024-01-14T07:30:01.181Z,20.00
2024-01-14T07:31:01.320Z,24.00
2024-01-14T07:32:04.383Z,20.00
2024-01-14T07:33:01.443Z,24.00
2024-01-14T07:34:01.537Z,32.00
2024-01-14T07:35:01.566Z,28.00
2024-01-14T07:36:01.685Z,32.00
2024-01-14T07:37:01.726Z,36.00
2024-01-14T07:38:01.829Z,40.00
2024-01-14T07:39:01.948Z,48.00
2024-01-14T07:40:01.983Z,52.00
2024-01-14T07:41:02.124Z,56.00
2024-01-14T07:42:02.180Z,64.00
2024-01-14T07:43:02.219Z,68.00
2024-01-14T07:44:02.326Z,72.00
2024-01-14T07:45:02.435Z,72.00
2024-01-14T07:46:02.465Z,88.00
2024-01-14T07:47:02.600Z,88.00
2024-01-14T07:48:02.771Z,88.00
2024-01-14T07:49:02.828Z,96.00
2024-01-14T07:50:02.796Z,112.00
2024-01-14T07:51:03.008Z,112.00
2024-01-14T07:52:03.008Z,116.00
2024-01-14T07:53:03.063Z,112.00
2024-01-14T07:54:03.324Z,108.00
2024-01-14T07:55:03.306Z,108.00
2024-01-14T07:56:03.334Z,132.00
2024-01-14T07:57:03.465Z,144.00
2024-01-14T07:58:03.459Z,172.00
2024-01-14T07:59:03.656Z,196.00
2024-01-14T08:00:03.730Z,200.00
2024-01-14T08:01:04.198Z,204.00
2024-01-14T08:02:03.952Z,216.00
2024-01-14T08:03:03.969Z,224.00
2024-01-14T08:04:04.349Z,224.00
2024-01-14T08:05:04.132Z,244.00
2024-01-14T08:06:04.269Z,256.00
2024-01-14T08:07:04.278Z,268.00
2024-01-14T08:08:04.439Z,276.00
2024-01-14T08:09:04.550Z,276.00
2024-01-14T08:10:04.534Z,268.00
2024-01-14T08:11:04.636Z,268.00
2024-01-14T08:12:04.717Z,272.00
2024-01-14T08:14:30.651Z,268.00
2024-01-14T08:15:34.285Z,284.00
2024-01-14T08:16:31.821Z,312.00
2024-01-14T08:17:31.983Z,360.00
2024-01-14T08:18:32.941Z,344.00
2024-01-14T08:19:32.133Z,348.00
2024-01-14T08:20:32.157Z,328.00
2024-01-14T08:21:32.200Z,320.00
2024-01-14T08:22:32.331Z,328.00
2024-01-14T08:23:32.414Z,356.00
2024-01-14T08:24:32.512Z,372.00
2024-01-14T08:25:32.584Z,336.00
2024-01-14T08:26:32.665Z,308.00
2024-01-14T08:27:32.796Z,280.00
2024-01-14T08:28:32.842Z,292.00
2024-01-14T08:29:32.898Z,264.00
2024-01-14T08:30:33.066Z,276.00
2024-01-14T08:31:33.276Z,288.00
2024-01-14T08:32:33.223Z,276.00
2024-01-14T08:33:33.360Z,288.00
2024-01-14T08:34:33.443Z,292.00
2024-01-14T08:35:33.409Z,316.00
2024-01-14T08:36:33.545Z,332.00
2024-01-14T08:37:33.621Z,316.00
2024-01-14T08:38:33.715Z,324.00
2024-01-14T08:39:33.806Z,328.00
2024-01-14T08:40:33.850Z,312.00
2024-01-14T08:41:33.919Z,276.00
2024-01-14T08:42:34.017Z,268.00
2024-01-14T08:43:34.059Z,268.00
2024-01-14T08:44:34.118Z,268.00
2024-01-14T08:45:34.239Z,288.00
2024-01-14T08:46:34.345Z,312.00
2024-01-14T08:47:34.411Z,340.00
2024-01-14T08:48:34.658Z,376.00
2024-01-14T08:49:34.586Z,392.00
2024-01-14T08:50:34.675Z,392.00
2024-01-14T08:51:34.851Z,376.00
2024-01-14T08:52:34.801Z,372.00
2024-01-14T08:53:34.864Z,408.00
2024-01-14T08:54:35.035Z,400.00
2024-01-14T08:55:35.063Z,404.00
2024-01-14T08:56:35.118Z,436.00
2024-01-14T08:57:35.237Z,420.00
2024-01-14T08:58:35.301Z,436.00
2024-01-14T08:59:35.382Z,476.00
2024-01-14T09:00:35.518Z,456.00
2024-01-14T09:01:35.628Z,440.00
2024-01-14T09:02:35.658Z,452.00
2024-01-14T09:03:35.795Z,500.00
2024-01-14T09:04:35.905Z,528.00
2024-01-14T09:05:36.044Z,500.00
2024-01-14T09:06:36.057Z,512.00
2024-01-14T09:07:36.097Z,540.00
2024-01-14T09:08:36.180Z,584.00
2024-01-14T09:09:36.286Z,640.00
2024-01-14T09:10:36.378Z,628.00
2024-01-14T09:11:36.448Z,732.00
2024-01-14T09:12:36.606Z,704.00
2024-01-14T09:13:36.572Z,680.00
2024-01-14T09:14:36.669Z,692.00
2024-01-14T09:15:36.793Z,716.00
2024-01-14T09:16:36.860Z,720.00
2024-01-14T09:17:37.033Z,748.00
2024-01-14T09:18:37.164Z,744.00
2024-01-14T09:19:37.140Z,712.00
2024-01-14T09:20:37.145Z,776.00
2024-01-14T09:21:37.359Z,768.00
2024-01-14T09:22:37.328Z,692.00
2024-01-14T09:23:37.414Z,648.00
2024-01-14T09:24:37.582Z,660.00
2024-01-14T09:25:37.576Z,672.00
2024-01-14T09:26:37.652Z,652.00
2024-01-14T09:27:37.846Z,704.00
2024-01-14T09:28:37.815Z,716.00
2024-01-14T09:29:37.896Z,780.00
2024-01-14T09:30:38.146Z,752.00
2024-01-14T09:31:38.095Z,748.00
2024-01-14T09:32:38.496Z,684.00
2024-01-14T09:33:38.349Z,596.00
2024-01-14T09:34:38.401Z,584.00
2024-01-14T09:35:38.385Z,624.00
2024-01-14T09:36:38.533Z,652.00
2024-01-14T09:37:38.578Z,696.00
2024-01-14T09:38:38.649Z,656.00
2024-01-14T09:39:38.729Z,776.00
2024-01-14T09:40:38.801Z,748.00
2024-01-14T09:41:38.959Z,724.00
2024-01-14T09:42:39.006Z,616.00
2024-01-14T09:43:39.101Z,604.00
2024-01-14T09:44:39.135Z,636.00
2024-01-14T09:45:46.496Z,652.00
2024-01-14T09:46:39.304Z,724.00
2024-01-14T09:47:39.463Z,820.00
2024-01-14T09:48:39.636Z,860.00
2024-01-14T09:49:39.777Z,872.00
2024-01-14T09:50:39.653Z,824.00
2024-01-14T09:51:39.783Z,808.00
2024-01-14T09:52:39.890Z,784.00
2024-01-14T09:53:40.034Z,784.00
2024-01-14T09:54:40.117Z,824.00
2024-01-14T09:55:40.138Z,772.00
2024-01-14T09:56:40.184Z,788.00
2024-01-14T09:57:40.348Z,868.00
2024-01-14T09:58:40.350Z,892.00
2024-01-14T09:59:40.474Z,996.00
2024-01-14T10:00:40.616Z,1044.00
2024-01-14T10:01:40.597Z,1004.00
2024-01-14T10:02:40.666Z,1008.00
2024-01-14T10:03:40.881Z,1032.00
2024-01-14T10:04:40.927Z,940.00
2024-01-14T10:05:41.037Z,972.00
2024-01-14T10:06:41.163Z,988.00
2024-01-14T10:07:41.317Z,964.00
2024-01-14T10:08:41.226Z,956.00
2024-01-14T10:09:41.355Z,1000.00
2024-01-14T10:10:41.424Z,1072.00
2024-01-14T10:11:41.510Z,1200.00
2024-01-14T10:12:41.745Z,1168.00
2024-01-14T10:13:41.659Z,1140.00
2024-01-14T10:14:41.784Z,1116.00
2024-01-14T10:15:48.610Z,1332.00
2024-01-14T10:16:52.253Z,1380.00
2024-01-14T10:17:42.022Z,1260.00
2024-01-14T10:18:42.185Z,1256.00
2024-01-14T10:19:42.309Z,1212.00
2024-01-14T10:20:42.264Z,1140.00
2024-01-14T10:21:42.495Z,1140.00
2024-01-14T10:22:42.438Z,1080.00
2024-01-14T10:23:42.492Z,1064.00
2024-01-14T10:24:42.742Z,1084.00
2024-01-14T10:25:42.621Z,1208.00
2024-01-14T10:26:42.728Z,1116.00
2024-01-14T10:27:42.889Z,1040.00
2024-01-14T10:28:42.835Z,968.00
2024-01-14T10:29:42.931Z,992.00
2024-01-14T10:30:43.133Z,1060.00
2024-01-14T10:31:43.124Z,1160.00
2024-01-14T10:33:16.658Z,1276.00
2024-01-14T10:33:43.340Z,1184.00
2024-01-14T10:34:43.449Z,1124.00
2024-01-14T10:35:43.560Z,1144.00
2024-01-14T10:36:43.553Z,1144.00
2024-01-14T10:37:43.628Z,1200.00
2024-01-14T10:38:43.674Z,1188.00
2024-01-14T10:39:43.798Z,1144.00
2024-01-14T10:40:43.815Z,1192.00
2024-01-14T10:41:43.974Z,1092.00
2024-01-14T10:42:44.000Z,1084.00
2024-01-14T10:43:44.140Z,1000.00
2024-01-14T10:44:44.232Z,1024.00
2024-01-14T10:45:44.412Z,1120.00
2024-01-14T10:46:44.427Z,1132.00
2024-01-14T10:47:44.519Z,1156.00
2024-01-14T10:48:44.640Z,1160.00
2024-01-14T10:49:44.740Z,1240.00
2024-01-14T10:50:48.248Z,1200.00
2024-01-14T10:51:44.848Z,1080.00
2024-01-14T10:52:44.950Z,1020.00
2024-01-14T10:53:44.931Z,1080.00
2024-01-14T10:54:45.001Z,1148.00
2024-01-14T10:55:45.084Z,1092.00
2024-01-14T10:56:45.184Z,1004.00
2024-01-14T10:57:45.278Z,1032.00
2024-01-14T10:58:45.360Z,1032.00
2024-01-14T10:59:45.445Z,1040.00
2024-01-14T11:00:45.659Z,1008.00
2024-01-14T11:01:45.581Z,1036.00
2024-01-14T11:02:45.769Z,1008.00
2024-01-14T11:03:49.496Z,1024.00
2024-01-14T11:04:45.861Z,1040.00
2024-01-14T11:05:45.942Z,1040.00
2024-01-14T11:06:45.999Z,1016.00
2024-01-14T11:07:46.150Z,984.00
2024-01-14T11:08:46.201Z,948.00
2024-01-14T11:09:46.261Z,956.00
2024-01-14T11:10:46.347Z,948.00
2024-01-14T11:11:46.436Z,1008.00
2024-01-14T11:12:46.554Z,980.00
2024-01-14T11:13:46.593Z,1016.00
2024-01-14T11:14:46.675Z,1048.00
2024-01-14T11:15:46.811Z,1044.00
2024-01-14T11:16:46.847Z,1004.00
2024-01-14T11:17:47.009Z,976.00
2024-01-14T11:18:47.180Z,944.00
2024-01-14T11:19:47.209Z,904.00
2024-01-14T11:20:59.497Z,948.00
2024-01-14T11:21:59.692Z,932.00
2024-01-14T11:22:54.044Z,876.00
2024-01-14T11:23:47.556Z,876.00
2024-01-14T11:24:47.660Z,920.00
2024-01-14T11:25:47.586Z,956.00
2024-01-14T11:26:47.719Z,960.00
2024-01-14T11:27:47.931Z,856.00
2024-01-14T11:28:47.925Z,812.00
2024-01-14T11:29:47.965Z,812.00
2024-01-14T11:30:48.171Z,868.00
2024-01-14T11:31:48.198Z,932.00
2024-01-14T11:32:48.260Z,988.00
2024-01-14T11:33:48.518Z,1068.00
2024-01-14T11:34:49.157Z,1024.00
2024-01-14T11:35:48.483Z,884.00
2024-01-14T11:36:48.670Z,896.00
2024-01-14T11:37:48.621Z,992.00
2024-01-14T11:38:48.723Z,1088.00
2024-01-14T11:39:48.870Z,1108.00
2024-01-14T11:40:48.853Z,1072.00
2024-01-14T11:41:48.939Z,1048.00
2024-01-14T11:42:49.094Z,1128.00
2024-01-14T11:43:49.188Z,1172.00
2024-01-14T11:44:49.232Z,1196.00
2024-01-14T11:45:49.429Z,1168.00
2024-01-14T11:46:51.953Z,1188.00
2024-01-14T11:47:49.591Z,1208.00
2024-01-14T11:48:49.673Z,1204.00
2024-01-14T11:49:49.845Z,1216.00
2024-01-14T11:50:49.780Z,1180.00
2024-01-14T11:51:49.926Z,1356.00
2024-01-14T11:52:49.852Z,1464.00
2024-01-14T11:53:52.049Z,1460.00
2024-01-14T11:54:50.167Z,1544.00
2024-01-14T11:55:50.202Z,1784.00
2024-01-14T11:56:50.222Z,1928.00
2024-01-14T11:57:50.313Z,1732.00
2024-01-14T11:58:50.368Z,1568.00
2024-01-14T11:59:53.086Z,1488.00
2024-01-14T12:00:50.732Z,1624.00
2024-01-14T12:01:50.578Z,1792.00
2024-01-14T12:02:50.654Z,1720.00
2024-01-14T12:03:52.121Z,1492.00
2024-01-14T12:05:00.074Z,1448.00
2024-01-14T12:05:54.714Z,1568.00
2024-01-14T12:06:52.124Z,1332.00
2024-01-14T12:07:57.011Z,1376.00
2024-01-14T12:08:51.124Z,1212.00
2024-01-14T12:09:51.205Z,1200.00
2024-01-14T12:10:51.313Z,1168.00
2024-01-14T12:11:51.392Z,1088.00
2024-01-14T12:12:51.572Z,1100.00
2024-01-14T12:13:51.549Z,1020.00
2024-01-14T12:14:51.648Z,1000.00
2024-01-14T12:15:58.758Z,1020.00
2024-01-14T12:16:51.748Z,1040.00
2024-01-14T12:17:51.880Z,1052.00
2024-01-14T12:18:52.008Z,1060.00
2024-01-14T12:19:52.174Z,1072.00
2024-01-14T12:20:52.121Z,1096.00
2024-01-14T12:21:52.236Z,1088.00
2024-01-14T12:22:52.268Z,1100.00
2024-01-14T12:23:52.376Z,1120.00
2024-01-14T12:24:52.461Z,1048.00
2024-01-14T12:25:52.557Z,1076.00
2024-01-14T12:26:52.634Z,1040.00
2024-01-14T12:27:52.696Z,1056.00
2024-01-14T12:28:52.784Z,1040.00
2024-01-14T12:29:52.881Z,1080.00
2024-01-14T12:30:53.075Z,1144.00
2024-01-14T12:31:56.871Z,1080.00
2024-01-14T12:32:53.094Z,1052.00
2024-01-14T12:33:53.357Z,1100.00
2024-01-14T12:34:53.372Z,1080.00
2024-01-14T12:35:53.338Z,1064.00
2024-01-14T12:36:54.727Z,1136.00
2024-01-14T12:37:53.561Z,1116.00
2024-01-14T12:38:53.640Z,1112.00
2024-01-14T12:39:53.688Z,1084.00
2024-01-14T12:40:53.775Z,1108.00
2024-01-14T12:41:55.525Z,1048.00
2024-01-14T12:42:54.026Z,944.00
2024-01-14T12:43:54.056Z,892.00
2024-01-14T12:44:55.606Z,904.00
2024-01-14T12:45:54.201Z,956.00
2024-01-14T12:46:57.358Z,948.00
2024-01-14T12:47:54.384Z,868.00
2024-01-14T12:49:01.730Z,896.00
2024-01-14T12:49:54.595Z,996.00
2024-01-14T12:50:54.615Z,1088.00
2024-01-14T12:51:54.672Z,1080.00
2024-01-14T12:52:54.733Z,1052.00
2024-01-14T12:53:54.867Z,1056.00
2024-01-14T12:54:54.965Z,1056.00
2024-01-14T12:55:55.074Z,1044.00